Time;durP1;ratioP1;P1;durP2;ratioP2;P2;SDS_P1;SDS_P2;PMS_P1;PMS_P2;Temp;Humidity;BMP_temperature;BMP_pressure;BME280_temperature;BME280_humidity;BME280_pressure;Samples;Min_cycle;Max_cycle;Signal;HPM_P1;HPM_P2
2021/11/05 00:01:38;;;;;;;5.23;1.90;;;9.70;99.90;;;;;;6158250;23;20155;-87
2021/11/05 00:04:04;;;;;;;5.23;1.90;;;9.70;99.90;;;;;;6156927;23;20160;-88
2021/11/05 00:06:29;;;;;;;3.70;1.60;;;9.60;99.90;;;;;;6157070;23;20491;-87
2021/11/05 00:08:55;;;;;;;5.07;1.73;;;9.60;99.90;;;;;;6157968;23;20171;-87
2021/11/05 00:11:21;;;;;;;4.63;1.43;;;9.60;99.90;;;;;;6157987;23;20166;-87
2021/11/05 00:13:47;;;;;;;5.33;1.93;;;9.60;99.90;;;;;;6157482;23;20712;-87
2021/11/05 00:16:12;;;;;;;4.70;1.60;;;9.50;99.90;;;;;;6184047;23;20221;-88
2021/11/05 00:18:38;;;;;;;5.93;1.60;;;9.50;99.90;;;;;;6158236;23;20159;-87
2021/11/05 00:21:03;;;;;;;4.87;1.77;;;9.50;99.90;;;;;;6157430;23;20642;-88
2021/11/05 00:23:29;;;;;;;6.57;1.80;;;9.50;99.90;;;;;;6156391;23;20156;-86
2021/11/05 00:25:55;;;;;;;2.67;1.20;;;9.40;99.90;;;;;;6158211;23;20196;-88
2021/11/05 00:28:20;;;;;;;1.67;1.27;;;9.40;99.90;;;;;;6158431;23;20163;-88
2021/11/05 00:30:47;;;;;;;4.70;1.60;;;9.50;99.90;;;;;;6159438;23;20195;-87
2021/11/05 00:33:12;;;;;;;2.23;1.37;;;9.50;99.90;;;;;;6158546;23;20148;-88
2021/11/05 00:35:38;;;;;;;3.80;1.70;;;9.40;99.90;;;;;;6158169;23;20165;-89
2021/11/05 00:38:04;;;;;;;4.73;2.20;;;9.30;99.90;;;;;;6158827;23;20413;-88
2021/11/05 00:40:31;;;;;;;3.27;1.80;;;9.40;99.90;;;;;;6158365;23;20163;-88
2021/11/05 00:42:57;;;;;;;3.57;2.03;;;9.70;99.90;;;;;;6158620;23;20224;-88
2021/11/05 00:45:23;;;;;;;4.43;1.40;;;9.50;99.90;;;;;;6158285;23;20216;-87
2021/11/05 00:47:49;;;;;;;5.70;2.13;;;9.30;99.90;;;;;;6158429;23;20522;-89
2021/11/05 00:50:14;;;;;;;8.70;4.37;;;9.10;99.90;;;;;;6162455;23;20192;-95
2021/11/05 00:52:42;;;;;;;4.43;1.53;;;9.20;99.90;;;;;;6162491;23;20178;-93
2021/11/05 00:55:08;;;;;;;5.67;1.50;;;9.40;99.90;;;;;;6165982;23;20178;-90
2021/11/05 00:57:35;;;;;;;3.13;1.90;;;9.50;99.90;;;;;;6192823;23;20150;-96
2021/11/05 01:00:05;;;;;;;5.77;2.30;;;9.40;99.90;;;;;;6165198;23;20609;-93
2021/11/05 01:02:31;;;;;;;3.20;1.63;;;9.20;99.90;;;;;;6166177;23;20143;-94
2021/11/05 01:04:57;;;;;;;5.57;2.03;;;9.20;99.90;;;;;;6166325;23;20158;-93
2021/11/05 01:07:24;;;;;;;14.40;11.90;;;9.50;99.90;;;;;;6169082;23;20142;-95
2021/11/05 01:09:50;;;;;;;8.30;4.60;;;9.60;99.90;;;;;;6171836;23;20262;-92
2021/11/05 01:12:15;;;;;;;6.20;2.30;;;9.70;99.90;;;;;;6173456;23;20158;-93
2021/11/05 01:14:41;;;;;;;6.37;2.67;;;9.50;99.90;;;;;;6169215;23;20153;-96
2021/11/05 01:17:07;;;;;;;4.57;1.77;;;9.50;99.90;;;;;;6166755;23;20172;-96
2021/11/05 01:19:33;;;;;;;3.27;1.97;;;9.60;99.90;;;;;;6167203;23;20159;-96
2021/11/05 01:21:59;;;;;;;3.27;1.53;;;9.70;99.90;;;;;;6166493;23;20236;-94
2021/11/05 01:24:24;;;;;;;4.93;2.10;;;9.70;99.90;;;;;;6137846;23;20159;-96
2021/11/05 01:26:50;;;;;;;7.13;1.77;;;9.70;99.90;;;;;;6162690;23;20152;-92
2021/11/05 01:29:16;;;;;;;7.17;2.30;;;9.70;99.90;;;;;;6162262;23;20185;-96
2021/11/05 01:31:43;;;;;;;4.37;1.90;;;9.70;99.90;;;;;;6163226;23;20184;-96
2021/11/05 01:34:09;;;;;;;3.83;1.57;;;9.70;99.90;;;;;;6163616;23;20197;-96
2021/11/05 01:36:35;;;;;;;3.60;2.10;;;9.70;99.90;;;;;;6163456;23;20172;-95
2021/11/05 01:39:01;;;;;;;6.80;2.00;;;9.70;99.90;;;;;;6163706;23;20150;-96
2021/11/05 01:41:27;;;;;;;4.70;2.70;;;9.80;99.90;;;;;;6164128;23;20191;-92
2021/11/05 01:43:53;;;;;;;7.93;2.10;;;9.90;99.90;;;;;;6164070;23;20164;-96
2021/11/05 01:46:20;;;;;;;5.83;2.43;;;9.90;99.90;;;;;;6165783;23;20153;-96
2021/11/05 01:48:47;;;;;;;5.30;2.30;;;9.80;99.90;;;;;;6165072;23;20549;-96
2021/11/05 01:51:16;;;;;;;7.03;2.33;;;9.80;99.90;;;;;;6165170;23;20234;-96
2021/11/05 01:53:41;;;;;;;9.97;2.60;;;9.80;99.90;;;;;;6165101;23;20145;-91
2021/11/05 01:56:07;;;;;;;5.23;2.10;;;9.70;99.90;;;;;;6161682;23;20152;-86
2021/11/05 01:58:33;;;;;;;4.37;2.60;;;9.80;99.90;;;;;;6158393;23;20147;-87
2021/11/05 02:00:58;;;;;;;6.40;3.63;;;9.80;99.90;;;;;;6163571;23;20148;-95
2021/11/05 02:03:24;;;;;;;7.67;3.90;;;9.70;99.90;;;;;;6164291;23;20152;-94
2021/11/05 02:05:53;;;;;;;10.47;6.77;;;9.80;99.90;;;;;;6164766;23;20151;-96
2021/11/05 02:08:21;;;;;;;18.87;7.67;;;9.80;99.90;;;;;;6164798;23;20468;-96
2021/11/05 02:10:48;;;;;;;14.00;5.57;;;9.70;99.90;;;;;;6167127;23;20189;-93
2021/11/05 02:13:14;;;;;;;14.20;6.03;;;9.70;99.90;;;;;;6167007;23;20155;-96
2021/11/05 02:15:42;;;;;;;8.53;3.43;;;9.70;99.90;;;;;;6168037;23;20153;-96
2021/11/05 02:18:08;;;;;;;13.93;5.57;;;9.80;99.90;;;;;;6168594;23;20192;-95
2021/11/05 02:20:37;;;;;;;8.13;3.77;;;9.70;99.90;;;;;;6168012;23;20152;-96
2021/11/05 02:23:04;;;;;;;8.17;4.07;;;9.70;99.90;;;;;;6168781;23;20156;-95
2021/11/05 02:25:30;;;;;;;34.73;15.80;;;9.70;99.90;;;;;;6168467;23;20147;-96
2021/11/05 02:27:56;;;;;;;34.83;18.90;;;9.70;99.90;;;;;;6169454;23;20174;-96
2021/11/05 02:30:22;;;;;;;28.23;14.20;;;9.70;99.90;;;;;;6169472;23;20258;-96
2021/11/05 02:32:48;;;;;;;20.53;10.30;;;9.50;99.90;;;;;;6169122;23;20301;-94
2021/11/05 02:35:15;;;;;;;9.30;2.97;;;9.40;99.90;;;;;;6170158;23;20208;-96
2021/11/05 02:37:42;;;;;;;11.80;5.27;;;9.40;99.90;;;;;;6170213;23;20147;-96
2021/11/05 02:40:11;;;;;;;8.03;3.40;;;9.50;99.90;;;;;;6169870;23;20148;-96
2021/11/05 02:42:38;;;;;;;8.43;3.70;;;9.60;99.90;;;;;;6202915;23;20166;-95
2021/11/05 02:45:07;;;;;;;7.27;3.87;;;9.60;99.90;;;;;;6162567;23;20148;-90
2021/11/05 02:47:33;;;;;;;13.43;4.00;;;9.80;99.90;;;;;;6187595;23;20144;-92
2021/11/05 02:50:12;;;;;;;12.40;5.10;;;9.70;99.90;;;;;;6161246;23;20529;-96
2021/11/05 02:52:42;;;;;;;30.53;14.87;;;9.60;99.90;;;;;;6206192;23;20140;-89
2021/11/05 02:55:15;;;;;;;6.17;3.40;;;9.80;99.90;;;;;;6154933;23;20152;-96
2021/11/05 02:57:41;;;;;;;45.87;20.97;;;9.80;99.90;;;;;;6155272;23;20203;-96
2021/11/05 03:00:12;;;;;;;8.37;3.70;;;9.80;99.90;;;;;;6207202;23;20149;-93
2021/11/05 03:02:38;;;;;;;19.50;9.70;;;9.80;99.90;;;;;;6157021;23;20161;-96
2021/11/05 03:05:05;;;;;;;13.13;6.87;;;9.80;99.90;;;;;;6182022;23;20147;-96
2021/11/05 03:07:31;;;;;;;20.60;9.30;;;9.80;99.90;;;;;;6183539;23;20182;-93
2021/11/05 03:09:57;;;;;;;7.23;3.00;;;9.80;99.90;;;;;;6183837;23;20190;-94
2021/11/05 03:12:23;;;;;;;12.40;5.57;;;9.70;99.90;;;;;;6183567;23;20179;-96
2021/11/05 03:14:48;;;;;;;29.37;12.97;;;9.70;99.90;;;;;;6154887;23;20163;-96
2021/11/05 03:17:17;;;;;;;11.43;5.87;;;9.80;99.90;;;;;;6179761;23;20175;-96
2021/11/05 03:19:55;;;;;;;12.90;4.83;;;9.70;99.90;;;;;;6209590;23;20142;-89
2021/11/05 03:22:27;;;;;;;14.50;4.70;;;9.70;99.90;;;;;;6186960;23;20163;-93
2021/11/05 03:24:54;;;;;;;21.87;8.57;;;9.60;99.90;;;;;;6187768;23;20151;-96
2021/11/05 03:27:21;;;;;;;20.10;6.37;;;9.60;99.90;;;;;;6185206;23;20166;-93
2021/11/05 03:30:13;;;;;;;33.97;10.80;;;9.80;99.90;;;;;;6139805;23;20171;-90
2021/11/05 03:32:48;;;;;;;21.90;8.60;;;9.80;99.90;;;;;;6187980;23;20150;-88
2021/11/05 03:35:33;;;;;;;19.70;6.00;;;9.90;99.90;;;;;;6212972;23;20138;-90
2021/11/05 03:38:04;;;;;;;23.00;6.90;;;9.70;99.90;;;;;;6214231;23;20133;-90
2021/11/05 03:40:55;;;;;;;17.07;5.77;;;9.50;99.90;;;;;;6213686;23;20147;-92
2021/11/05 03:43:42;;;;;;;23.03;7.13;;;9.40;99.90;;;;;;6212526;23;20185;-92
2021/11/05 03:46:08;;;;;;;20.43;7.10;;;9.60;99.90;;;;;;6171176;23;20145;-96
2021/11/05 03:48:39;;;;;;;24.03;7.63;;;9.70;99.90;;;;;;6171072;23;20148;-96
2021/11/05 03:51:05;;;;;;;20.60;6.97;;;9.70;99.90;;;;;;6171624;23;20216;-96
2021/11/05 03:53:31;;;;;;;17.70;6.43;;;9.60;99.90;;;;;;6172809;23;20226;-96
2021/11/05 03:55:58;;;;;;;22.77;6.20;;;9.50;99.90;;;;;;6148383;23;20166;-94
2021/11/05 03:58:24;;;;;;;25.57;7.83;;;9.50;99.90;;;;;;6173750;23;20146;-96
2021/11/05 04:00:50;;;;;;;24.43;7.37;;;9.50;99.90;;;;;;6172365;23;20147;-96
2021/11/05 04:03:16;;;;;;;22.97;7.10;;;9.50;99.90;;;;;;6172239;23;20152;-96
2021/11/05 04:05:42;;;;;;;18.00;6.37;;;9.40;99.90;;;;;;6173626;23;20166;-96
2021/11/05 04:08:07;;;;;;;20.10;6.73;;;9.40;99.90;;;;;;6156787;23;20155;-96
2021/11/05 04:10:33;;;;;;;19.93;6.60;;;9.30;99.90;;;;;;6176843;23;20186;-96
2021/11/05 04:13:04;;;;;;;21.67;7.00;;;9.40;99.90;;;;;;6172150;23;20137;-96
2021/11/05 04:15:30;;;;;;;23.30;6.53;;;9.50;99.90;;;;;;6172304;23;20148;-96
2021/11/05 04:17:56;;;;;;;18.50;7.07;;;9.70;99.90;;;;;;6172361;23;20156;-96
2021/11/05 04:20:21;;;;;;;21.53;7.20;;;9.70;99.90;;;;;;6172105;23;20203;-96
2021/11/05 04:22:47;;;;;;;20.60;7.53;;;9.80;99.90;;;;;;6172434;23;20149;-96
2021/11/05 04:25:13;;;;;;;23.03;9.00;;;9.80;99.90;;;;;;6171435;23;20151;-94
2021/11/05 04:27:39;;;;;;;20.43;8.93;;;9.80;99.90;;;;;;6170319;23;20203;-96
2021/11/05 04:30:07;;;;;;;19.20;7.43;;;9.70;99.90;;;;;;6170982;23;20270;-96
2021/11/05 04:32:33;;;;;;;19.30;8.33;;;9.70;99.90;;;;;;6168551;23;20151;-96
2021/11/05 04:34:59;;;;;;;23.20;8.70;;;9.80;99.90;;;;;;6172014;23;20152;-96
2021/11/05 04:37:26;;;;;;;21.47;8.07;;;9.80;99.90;;;;;;6175109;23;20144;-96
2021/11/05 04:39:51;;;;;;;19.20;8.30;;;9.80;99.90;;;;;;6178332;23;20154;-96
2021/11/05 04:42:17;;;;;;;21.00;8.63;;;9.70;99.90;;;;;;6177112;23;20163;-96
2021/11/05 04:44:42;;;;;;;18.13;8.60;;;9.70;99.90;;;;;;6176279;23;20167;-94
2021/11/05 04:47:08;;;;;;;29.10;8.17;;;9.70;99.90;;;;;;6171919;23;20188;-95
2021/11/05 04:49:35;;;;;;;22.20;7.63;;;9.70;99.90;;;;;;6172934;23;20191;-96
2021/11/05 04:52:02;;;;;;;23.37;7.83;;;9.70;99.90;;;;;;6173221;23;20144;-96
2021/11/05 04:54:33;;;;;;;27.07;8.00;;;9.60;99.90;;;;;;6176875;23;20146;-94
2021/11/05 04:56:58;;;;;;;23.20;7.83;;;9.60;99.90;;;;;;6186935;23;20170;-90
2021/11/05 05:00:06;;;;;;;21.53;7.73;;;9.50;99.90;;;;;;6211792;23;20181;-93
2021/11/05 05:03:13;;;;;;;17.77;7.40;;;9.40;99.90;;;;;;6213187;23;20184;-88
2021/11/05 05:06:01;;;;;;;20.53;7.73;;;9.40;99.90;;;;;;6188033;23;20166;-88
2021/11/05 05:08:50;;;;;;;19.40;7.47;;;9.40;99.90;;;;;;6212830;23;20142;-95
2021/11/05 05:11:17;;;;;;;23.17;7.37;;;9.50;99.90;;;;;;6160183;23;20196;-94
2021/11/05 05:13:49;;;;;;;14.93;7.10;;;9.50;99.90;;;;;;6184906;23;20151;-90
2021/11/05 05:16:35;;;;;;;15.87;6.07;;;9.50;99.90;;;;;;6184443;23;20148;-94
2021/11/05 05:19:04;;;;;;;17.33;5.73;;;9.50;99.90;;;;;;6184410;23;20162;-90
2021/11/05 05:21:30;;;;;;;16.70;5.97;;;9.80;99.90;;;;;;6186778;23;20156;-95
2021/11/05 05:23:56;;;;;;;16.73;6.37;;;9.80;99.90;;;;;;6184284;23;20148;-90
2021/11/05 05:26:22;;;;;;;13.77;5.63;;;9.80;99.90;;;;;;6208032;23;20199;-95
2021/11/05 05:29:11;;;;;;;17.90;5.10;;;9.60;99.90;;;;;;6181752;23;20148;-95
2021/11/05 05:31:39;;;;;;;12.03;4.70;;;9.70;99.90;;;;;;6180599;23;20171;-94
2021/11/05 05:34:06;;;;;;;13.20;5.30;;;9.60;99.90;;;;;;6155632;23;20167;-96
2021/11/05 05:36:32;;;;;;;16.03;5.10;;;9.50;99.90;;;;;;6183973;23;20148;-95
2021/11/05 05:38:58;;;;;;;12.23;4.67;;;9.50;99.90;;;;;;6210748;23;20180;-96
2021/11/05 05:41:25;;;;;;;12.73;4.70;;;9.50;99.90;;;;;;6185206;23;20156;-89
2021/11/05 05:43:51;;;;;;;11.37;4.47;;;9.40;99.90;;;;;;6188265;23;20160;-89
2021/11/05 05:46:16;;;;;;;15.30;4.80;;;9.30;99.90;;;;;;6190267;23;20146;-95
2021/11/05 05:48:42;;;;;;;11.53;4.20;;;9.30;99.90;;;;;;6181137;23;20155;-86
2021/11/05 05:51:12;;;;;;;12.30;4.50;;;9.30;99.90;;;;;;6173988;23;20197;-91
2021/11/05 05:53:38;;;;;;;13.83;4.33;;;9.30;99.90;;;;;;6167039;23;20582;-86
2021/11/05 05:56:06;;;;;;;6.93;3.83;;;9.30;99.90;;;;;;6137734;23;20182;-86
2021/11/05 05:58:33;;;;;;;11.77;3.83;;;9.40;99.90;;;;;;6161610;23;20178;-87
2021/11/05 06:00:59;;;;;;;16.53;4.30;;;9.40;99.90;;;;;;6161726;23;20226;-87
2021/11/05 06:03:27;;;;;;;19.90;6.10;;;9.30;99.90;;;;;;6161761;23;20152;-86
2021/11/05 06:05:54;;;;;;;10.77;4.57;;;9.30;99.90;;;;;;6161561;23;20221;-86
2021/11/05 06:08:20;;;;;;;10.73;4.33;;;9.20;99.90;;;;;;6161201;23;20150;-86
2021/11/05 06:10:46;;;;;;;17.53;4.90;;;9.20;99.90;;;;;;6161372;23;20194;-86
2021/11/05 06:13:11;;;;;;;10.70;4.47;;;9.20;99.90;;;;;;6161338;23;20145;-86
2021/11/05 06:15:37;;;;;;;14.77;4.50;;;9.10;99.90;;;;;;6161398;23;20150;-86
2021/11/05 06:18:03;;;;;;;15.83;5.03;;;9.10;99.90;;;;;;6161780;23;20146;-86
2021/11/05 06:20:29;;;;;;;15.70;4.70;;;9.20;99.90;;;;;;6161447;23;20167;-86
2021/11/05 06:22:54;;;;;;;16.97;7.50;;;9.20;99.90;;;;;;6161478;23;20201;-86
2021/11/05 06:25:21;;;;;;;23.20;15.83;;;9.20;99.90;;;;;;6161004;23;20463;-86
2021/11/05 06:27:46;;;;;;;16.57;9.40;;;9.20;99.90;;;;;;6161369;23;20215;-86
2021/11/05 06:30:14;;;;;;;90.33;56.57;;;9.30;99.90;;;;;;6161400;23;20212;-87
2021/11/05 06:32:40;;;;;;;22.97;12.33;;;9.20;99.90;;;;;;6161161;23;20230;-87
2021/11/05 06:35:08;;;;;;;23.30;13.43;;;9.20;99.90;;;;;;6160663;23;20187;-87
2021/11/05 06:37:37;;;;;;;12.17;5.83;;;9.10;99.90;;;;;;6161737;23;20268;-86
2021/11/05 06:40:05;;;;;;;11.23;4.90;;;9.00;99.90;;;;;;6161214;23;20151;-87
2021/11/05 06:42:30;;;;;;;14.70;7.07;;;9.10;99.90;;;;;;6160650;23;20469;-86
2021/11/05 06:44:56;;;;;;;11.67;4.90;;;9.10;99.90;;;;;;6160866;23;20151;-86
2021/11/05 06:47:22;;;;;;;98.23;57.50;;;9.10;99.90;;;;;;6161158;23;20205;-86
2021/11/05 06:49:47;;;;;;;49.33;24.10;;;9.10;99.90;;;;;;6160496;23;20188;-86
2021/11/05 06:52:14;;;;;;;402.47;182.17;;;9.00;99.90;;;;;;6160557;23;20153;-86
2021/11/05 06:54:41;;;;;;;176.83;77.80;;;9.00;99.90;;;;;;6160856;23;20146;-87
2021/11/05 06:57:07;;;;;;;28.50;14.97;;;8.90;99.90;;;;;;6159979;23;20158;-87
2021/11/05 06:59:34;;;;;;;27.87;16.93;;;8.90;99.90;;;;;;6160859;23;20153;-86
2021/11/05 07:02:00;;;;;;;33.13;18.93;;;8.90;99.90;;;;;;6165849;23;20179;-86
2021/11/05 07:04:28;;;;;;;11.70;7.23;;;8.90;99.90;;;;;;6187728;23;20200;-87
2021/11/05 07:06:54;;;;;;;12.67;4.90;;;8.90;99.90;;;;;;6163632;23;20156;-87
2021/11/05 07:09:20;;;;;;;17.03;7.70;;;8.90;99.90;;;;;;6162684;23;20217;-87
2021/11/05 07:11:46;;;;;;;22.60;14.13;;;8.90;99.90;;;;;;6160773;23;20157;-87
2021/11/05 07:14:13;;;;;;;15.93;8.47;;;8.90;99.90;;;;;;6161247;23;20150;-89
2021/11/05 07:16:39;;;;;;;20.00;8.10;;;8.90;99.90;;;;;;6160739;23;20624;-86
2021/11/05 07:19:05;;;;;;;17.00;6.67;;;8.90;99.90;;;;;;6139677;23;20165;-93
2021/11/05 07:21:32;;;;;;;16.13;8.53;;;8.80;99.90;;;;;;6161729;23;20173;-87
2021/11/05 07:24:04;;;;;;;13.47;4.80;;;8.90;99.90;;;;;;6160912;23;20232;-86
2021/11/05 07:26:48;;;;;;;19.40;6.80;;;9.00;99.90;;;;;;6159359;23;20143;-87
2021/11/05 07:29:19;;;;;;;19.70;6.60;;;9.00;99.90;;;;;;6159422;23;20208;-87
2021/11/05 07:31:58;;;;;;;15.23;5.50;;;8.90;99.90;;;;;;6160263;23;20158;-88
2021/11/05 07:34:30;;;;;;;18.87;7.80;;;9.00;99.90;;;;;;6177929;23;20147;-90
2021/11/05 07:37:01;;;;;;;15.17;5.87;;;9.00;99.90;;;;;;6195264;23;20220;-87
2021/11/05 07:39:46;;;;;;;24.23;8.40;;;8.90;99.90;;;;;;6173104;23;20218;-86
2021/11/05 07:42:13;;;;;;;18.77;5.77;;;8.90;99.90;;;;;;6172708;23;20165;-87
2021/11/05 07:44:42;;;;;;;11.97;5.83;;;9.00;99.90;;;;;;6197489;23;20174;-87
2021/11/05 07:47:08;;;;;;;15.13;6.27;;;9.10;99.90;;;;;;6170820;23;20149;-87
2021/11/05 07:49:35;;;;;;;10.20;4.87;;;9.10;99.90;;;;;;6169725;23;20197;-86
2021/11/05 07:52:02;;;;;;;18.13;9.37;;;9.00;99.90;;;;;;6169045;23;20163;-87
2021/11/05 07:54:30;;;;;;;18.33;8.30;;;9.00;99.90;;;;;;6167880;23;20156;-86
2021/11/05 07:56:56;;;;;;;22.83;9.97;;;9.10;99.90;;;;;;6167467;23;20153;-87
2021/11/05 07:59:22;;;;;;;16.40;8.00;;;9.00;99.90;;;;;;6166081;23;20161;-88
2021/11/05 08:01:48;;;;;;;32.73;6.43;;;9.10;99.90;;;;;;6167096;23;20196;-90
2021/11/05 08:04:14;;;;;;;20.40;5.87;;;9.10;99.90;;;;;;6171954;23;20161;-87
2021/11/05 08:06:40;;;;;;;21.93;11.30;;;9.10;99.90;;;;;;6193147;23;20173;-87
2021/11/05 08:09:07;;;;;;;23.20;11.27;;;9.30;99.90;;;;;;6169352;23;20174;-85
2021/11/05 08:11:36;;;;;;;13.30;5.10;;;9.30;99.90;;;;;;6196207;23;20143;-87
2021/11/05 08:14:02;;;;;;;19.40;10.03;;;9.20;99.90;;;;;;6169950;23;20161;-86
2021/11/05 08:16:29;;;;;;;19.17;10.63;;;9.30;99.90;;;;;;6143259;23;20169;-91
2021/11/05 08:18:54;;;;;;;23.00;9.43;;;9.40;99.90;;;;;;6166417;23;20233;-89
2021/11/05 08:21:20;;;;;;;18.77;7.60;;;9.50;99.90;;;;;;6163014;23;20143;-91
2021/11/05 08:23:46;;;;;;;14.00;5.73;;;9.50;99.90;;;;;;6166455;23;20169;-89
2021/11/05 08:26:13;;;;;;;18.83;8.13;;;9.40;99.90;;;;;;6165591;23;20149;-85
2021/11/05 08:28:41;;;;;;;11.47;6.33;;;9.50;99.90;;;;;;6165288;23;20173;-96
2021/11/05 08:31:11;;;;;;;14.90;6.33;;;9.60;99.90;;;;;;6156091;23;20257;-85
2021/11/05 08:33:38;;;;;;;9.77;7.27;;;9.70;99.90;;;;;;6158329;23;20180;-87
2021/11/05 08:36:06;;;;;;;16.57;7.43;;;9.80;99.90;;;;;;6185613;23;20142;-87
2021/11/05 08:38:33;;;;;;;23.27;11.83;;;9.80;99.90;;;;;;6157838;23;20651;-86
2021/11/05 08:41:07;;;;;;;19.13;11.37;;;9.90;99.90;;;;;;5075181;27;1324089;-87
2021/11/05 08:43:34;;;;;;;19.53;7.97;;;9.90;99.90;;;;;;5087906;28;20624;-86
2021/11/05 08:46:05;;;;;;;21.37;7.90;;;9.90;99.90;;;;;;5081832;28;20177;-85
2021/11/05 08:48:32;;;;;;;25.67;15.90;;;10.00;99.90;;;;;;5082765;28;20202;-87
2021/11/05 08:51:02;;;;;;;16.53;6.97;;;10.00;99.90;;;;;;5089269;28;20231;-85
2021/11/05 08:53:28;;;;;;;18.57;7.03;;;10.10;99.90;;;;;;5087266;28;20224;-85
2021/11/05 08:55:53;;;;;;;17.17;7.23;;;10.20;99.90;;;;;;5103506;28;20208;-86
2021/11/05 08:58:19;;;;;;;27.43;7.80;;;10.30;99.90;;;;;;5089353;28;20170;-87
2021/11/05 09:00:45;;;;;;;18.10;9.00;;;10.40;99.90;;;;;;5084835;28;20238;-85
2021/11/05 09:03:13;;;;;;;18.47;7.87;;;10.40;99.90;;;;;;5081484;28;20471;-85
2021/11/05 09:05:39;;;;;;;17.60;6.10;;;10.40;99.90;;;;;;5085863;28;20213;-87
2021/11/05 09:08:06;;;;;;;13.13;6.87;;;10.50;99.90;;;;;;5085956;28;20178;-87
2021/11/05 09:10:31;;;;;;;12.97;6.93;;;10.50;99.90;;;;;;5086583;28;20217;-86
2021/11/05 09:12:57;;;;;;;17.80;7.47;;;10.60;99.90;;;;;;5070873;28;20217;-87
2021/11/05 09:15:26;;;;;;;9.67;5.23;;;10.60;99.90;;;;;;5067839;28;20307;-86
2021/11/05 09:17:53;;;;;;;13.93;5.53;;;10.50;99.90;;;;;;5068488;28;20171;-86
2021/11/05 09:20:19;;;;;;;11.50;4.43;;;10.50;99.90;;;;;;5066142;28;20863;-85
2021/11/05 09:22:46;;;;;;;7.70;4.93;;;10.50;99.90;;;;;;5070556;28;20195;-86
2021/11/05 09:25:12;;;;;;;11.57;4.47;;;10.50;99.90;;;;;;5070792;28;20174;-85
2021/11/05 09:27:38;;;;;;;10.83;5.10;;;10.60;99.90;;;;;;5068595;28;20256;-85
2021/11/05 09:30:06;;;;;;;9.23;4.40;;;10.60;99.90;;;;;;5063244;28;20652;-85
2021/11/05 09:32:31;;;;;;;9.40;5.00;;;10.70;99.90;;;;;;5071231;28;20166;-86
2021/11/05 09:34:57;;;;;;;11.87;4.40;;;10.70;99.90;;;;;;5066921;28;20178;-86
2021/11/05 09:37:23;;;;;;;13.67;7.53;;;10.70;99.90;;;;;;5068860;28;20201;-86
2021/11/05 09:39:49;;;;;;;7.60;3.90;;;10.70;99.90;;;;;;5070022;28;20301;-86
2021/11/05 09:42:15;;;;;;;11.47;4.67;;;10.80;99.90;;;;;;5070659;28;20219;-85
2021/11/05 09:44:41;;;;;;;19.13;5.93;;;10.80;99.90;;;;;;5066492;28;20174;-86
2021/11/05 09:47:07;;;;;;;12.93;5.13;;;10.90;99.90;;;;;;5066036;28;20263;-86
2021/11/05 09:49:33;;;;;;;16.43;6.67;;;10.80;99.90;;;;;;5069986;28;20324;-85
2021/11/05 09:52:02;;;;;;;23.73;5.60;;;10.80;99.90;;;;;;5050742;28;20182;-87
2021/11/05 09:54:30;;;;;;;18.20;5.90;;;11.00;99.90;;;;;;5047077;28;20183;-86
2021/11/05 09:56:56;;;;;;;22.47;6.70;;;11.00;99.90;;;;;;5044903;28;20180;-87
2021/11/05 09:59:22;;;;;;;17.10;6.03;;;11.00;99.90;;;;;;5052372;28;20199;-86
2021/11/05 10:01:47;;;;;;;22.77;6.77;;;11.00;99.90;;;;;;5059841;28;20544;-86
2021/11/05 10:04:14;;;;;;;21.33;6.60;;;11.00;99.90;;;;;;5050433;28;20179;-88
2021/11/05 10:07:08;;;;;;;18.90;6.10;;;11.10;99.90;;;;;;5046385;28;20262;-86
2021/11/05 10:09:38;;;;;;;14.37;5.87;;;11.30;99.90;;;;;;5042553;28;20554;-86
2021/11/05 10:12:08;;;;;;;18.30;5.30;;;11.40;99.90;;;;;;5050564;28;20226;-86
2021/11/05 10:14:34;;;;;;;13.57;3.70;;;11.50;99.90;;;;;;5057871;28;20180;-85
2021/11/05 10:17:03;;;;;;;13.80;4.10;;;11.60;99.90;;;;;;5061747;28;20186;-85
2021/11/05 10:19:51;;;;;;;10.70;3.90;;;11.80;99.90;;;;;;5070880;28;20557;-85
2021/11/05 10:22:40;;;;;;;15.10;3.93;;;12.20;99.90;;;;;;5071836;28;20172;-85
2021/11/05 10:25:26;;;;;;;15.30;5.27;;;12.70;99.90;;;;;;5055503;28;20172;-87
2021/11/05 10:28:00;;;;;;;14.40;4.60;;;12.90;99.90;;;;;;5071471;28;20175;-86
2021/11/05 10:30:26;;;;;;;10.13;3.87;;;13.50;99.90;;;;;;5053083;28;20167;-88
2021/11/05 10:33:00;;;;;;;10.73;4.93;;;13.80;99.90;;;;;;5072059;28;20176;-86
2021/11/05 10:35:26;;;;;;;10.47;3.87;;;13.90;99.90;;;;;;5054546;28;20207;-87
2021/11/05 10:37:54;;;;;;;10.43;2.77;;;13.70;99.90;;;;;;5055516;28;20200;-85
2021/11/05 10:40:21;;;;;;;12.57;4.43;;;13.50;99.90;;;;;;5049012;28;20223;-87
2021/11/05 10:42:47;;;;;;;7.63;2.20;;;13.80;99.90;;;;;;5053555;28;20179;-88
2021/11/05 10:45:20;;;;;;;8.73;2.67;;;14.30;99.90;;;;;;5040579;28;20646;-92
2021/11/05 10:47:55;;;;;;;7.90;3.63;;;15.20;99.90;;;;;;5046904;28;20186;-85
2021/11/05 10:50:22;;;;;;;6.43;1.60;;;15.30;99.90;;;;;;5042837;28;20179;-87
2021/11/05 10:53:07;;;;;;;7.73;2.30;;;15.20;99.90;;;;;;5050880;28;20284;-86
2021/11/05 10:55:43;;;;;;;6.60;1.77;;;15.20;99.90;;;;;;5054620;28;20159;-86
2021/11/05 10:58:25;;;;;;;15.70;2.33;;;15.90;99.90;;;;;;5044029;28;20177;-86
2021/11/05 11:00:56;;;;;;;6.20;1.53;;;16.00;99.90;;;;;;5052279;28;20671;-85
2021/11/05 11:03:31;;;;;;;4.83;1.57;;;15.90;99.90;;;;;;5042428;28;20239;-86
2021/11/05 11:05:59;;;;;;;6.50;1.60;;;15.90;99.90;;;;;;5053725;28;20195;-86
2021/11/05 11:08:27;;;;;;;6.87;1.60;;;15.80;99.90;;;;;;5036190;28;20275;-86
2021/11/05 11:10:59;;;;;;;7.23;1.43;;;15.60;99.90;;;;;;5045002;28;20640;-86
2021/11/05 11:13:37;;;;;;;4.83;1.37;;;15.40;99.90;;;;;;5056064;28;20169;-85
2021/11/05 11:16:05;;;;;;;3.20;1.67;;;15.20;99.90;;;;;;5047293;28;20573;-85
2021/11/05 11:18:31;;;;;;;3.70;1.47;;;14.90;99.90;;;;;;5047050;28;20187;-86
2021/11/05 11:20:58;;;;;;;8.13;2.37;;;14.70;99.90;;;;;;5044370;28;20220;-86
2021/11/05 11:23:24;;;;;;;6.10;2.40;;;14.40;99.90;;;;;;5067579;28;20182;-85
2021/11/05 11:25:50;;;;;;;10.20;3.37;;;14.10;99.90;;;;;;5052104;28;20578;-85
2021/11/05 11:28:16;;;;;;;8.20;3.10;;;14.10;99.90;;;;;;5054904;28;20211;-86
2021/11/05 11:30:42;;;;;;;8.97;3.90;;;14.90;99.90;;;;;;5053755;28;20177;-85
2021/11/05 11:33:08;;;;;;;10.27;4.87;;;16.10;99.90;;;;;;5052335;28;20185;-86
2021/11/05 11:35:34;;;;;;;5.60;3.13;;;16.80;99.90;;;;;;5053503;28;20274;-86
2021/11/05 11:38:01;;;;;;;7.80;3.20;;;17.30;99.90;;;;;;5053765;28;20643;-85
2021/11/05 11:40:27;;;;;;;11.57;4.87;;;18.20;99.90;;;;;;5054648;28;20352;-86
2021/11/05 11:42:56;;;;;;;8.30;2.90;;;19.40;99.90;;;;;;5043405;28;20265;-87
2021/11/05 11:45:22;;;;;;;10.30;3.83;;;20.30;99.90;;;;;;5042713;28;20177;-87
2021/11/05 11:47:53;;;;;;;7.43;4.40;;;20.10;99.90;;;;;;5051263;28;20178;-86
2021/11/05 11:50:28;;;;;;;7.10;2.87;;;19.90;99.90;;;;;;5048289;28;20641;-86
2021/11/05 11:53:06;;;;;;;9.53;4.40;;;20.90;98.90;;;;;;5055141;28;20700;-87
2021/11/05 11:55:34;;;;;;;6.07;2.97;;;20.70;98.20;;;;;;5047723;28;20189;-85
2021/11/05 11:58:12;;;;;;;6.83;2.83;;;19.60;99.30;;;;;;5046750;28;20184;-86
2021/11/05 12:00:39;;;;;;;4.87;2.43;;;18.30;99.90;;;;;;5051533;28;20975;-85
2021/11/05 12:03:08;;;;;;;8.93;3.60;;;17.00;99.90;;;;;;5052936;28;20219;-84
2021/11/05 12:05:36;;;;;;;10.57;3.67;;;16.20;99.90;;;;;;5053931;28;20171;-85
2021/11/05 12:08:20;;;;;;;6.70;3.87;;;15.70;99.90;;;;;;5051062;28;20178;-86
2021/11/05 12:10:54;;;;;;;9.20;3.63;;;15.30;99.90;;;;;;5047261;28;20177;-85
2021/11/05 12:13:35;;;;;;;9.63;3.83;;;14.90;99.90;;;;;;5040827;28;20184;-86
2021/11/05 12:16:10;;;;;;;7.10;3.47;;;14.80;99.90;;;;;;5057042;28;20177;-86
2021/11/05 12:18:54;;;;;;;7.10;2.43;;;14.70;99.90;;;;;;5039614;28;20299;-86
2021/11/05 12:21:21;;;;;;;6.77;3.10;;;14.60;99.90;;;;;;5055484;28;20250;-85
2021/11/05 12:24:15;;;;;;;5.80;1.97;;;14.50;99.90;;;;;;5050532;28;20232;-86
2021/11/05 12:26:50;;;;;;;5.27;2.50;;;14.30;99.90;;;;;;5045337;28;20173;-86
2021/11/05 12:29:35;;;;;;;7.17;2.60;;;14.10;99.90;;;;;;5050418;28;20214;-86
2021/11/05 12:32:17;;;;;;;6.60;2.33;;;13.90;99.90;;;;;;5062219;28;20227;-86
2021/11/05 12:35:05;;;;;;;7.07;2.43;;;13.80;99.90;;;;;;5051974;28;20182;-86
2021/11/05 12:37:39;;;;;;;5.23;2.33;;;13.80;99.90;;;;;;5041223;28;20193;-85
2021/11/05 12:40:20;;;;;;;9.67;3.70;;;13.70;99.90;;;;;;5038473;28;20710;-85
2021/11/05 12:42:49;;;;;;;6.00;2.43;;;13.50;99.90;;;;;;5062732;28;20646;-86
2021/11/05 12:45:15;;;;;;;11.60;3.10;;;13.50;99.90;;;;;;5045995;28;20179;-85
2021/11/05 12:47:47;;;;;;;6.67;2.90;;;13.40;99.90;;;;;;5041031;28;20665;-86
2021/11/05 12:50:21;;;;;;;9.97;3.03;;;13.40;99.90;;;;;;5054459;28;20189;-86
2021/11/05 12:52:57;;;;;;;5.23;2.83;;;13.20;99.90;;;;;;5061861;28;20208;-85
2021/11/05 12:55:30;;;;;;;14.47;4.63;;;13.10;99.90;;;;;;5052251;28;20179;-87